メインページ
METAR-TAF:

METAR-TAF

空港 :

ポンタ・デルガダ, アゾレス諸島, ポルトガル

ポンタ・デルガダ空港

緯度: 37-44N, 経度: 025-42W, 海抜: 71m

現時点の気象観測

当レポートは19分前の01:30(UTC)に作成
北/北西の風 6kt
気温 14°C
湿度 77%
気圧 1033 hPa
視程10km以上
高度1800ftの雲はほとんどない
高度3000ftの千切れ雲あり

METAR: LPPD 180130Z 34006KT 9999 FEW018 BKN030 14/10 Q1033

時間: 00:49 (01:49 UTC)

予報

当レポートは2時間49分前の23:00(UTC)に作成
予報は18日の 00時(UTC)から 18日の 24時(UTC)まで有効
変向風 5kt
視程10km以上
高度1500ftの雲はほとんどない
高度3000ftの千切れ雲あり
18日の 00時(UTC)から 18日の 12時(UTC)まで一時的に
高度2500ftの雲は散在している

TAF: LPPD 172300Z 1800/1824 VRB05KT 9999 FEW015 BKN030 TEMPO 1800/1812 SCT025

4,000以上の空港の気象観測と天気予報(METAR報とTAF報)

利用可能な観測所は地図上に黄色い丸と赤い丸で示す。

丸の上にカーソルを重ねると観測所名を参照できる。

次にクリックすると気象観測と天気予報を参照できる。

マップの切り替え:黒色「×」印の緑ボタンをクリックして拡大、「-」印の緑ボタンをクリックして縮小、緑色の三角印をクリックして隣りの地図に切り替え


METAR-TAF: